sensor_id;sensor_type;location;lat;lon;timestamp;pressure;altitude;pressure_sealevel;temperature;humidity
54172;BME280;40076;52.354;4.970;2023-03-03T00:00:33;102623.66;;;3.89;100.00
54172;BME280;40076;52.354;4.970;2023-03-03T00:03:01;102621.25;;;3.88;100.00
54172;BME280;40076;52.354;4.970;2023-03-03T00:05:31;102622.28;;;3.87;100.00
54172;BME280;40076;52.354;4.970;2023-03-03T00:07:57;102625.41;;;3.84;100.00
54172;BME280;40076;52.354;4.970;2023-03-03T00:10:22;102625.19;;;3.85;100.00
54172;BME280;40076;52.354;4.970;2023-03-03T00:12:48;102622.72;;;3.84;100.00
54172;BME280;40076;52.354;4.970;2023-03-03T00:15:20;102630.97;;;3.82;100.00
54172;BME280;40076;52.354;4.970;2023-03-03T00:17:46;102627.75;;;3.80;100.00
54172;BME280;40076;52.354;4.970;2023-03-03T00:20:31;102631.09;;;3.76;100.00
54172;BME280;40076;52.354;4.970;2023-03-03T00:23:08;102631.31;;;3.74;100.00
54172;BME280;40076;52.354;4.970;2023-03-03T00:25:41;102623.28;;;3.74;100.00
54172;BME280;40076;52.354;4.970;2023-03-03T00:28:44;102628.50;;;3.69;100.00
54172;BME280;40076;52.354;4.970;2023-03-03T00:31:20;102631.78;;;3.71;100.00
54172;BME280;40076;52.354;4.970;2023-03-03T00:33:49;102637.13;;;3.71;100.00
54172;BME280;40076;52.354;4.970;2023-03-03T00:38:52;102638.75;;;3.72;100.00
54172;BME280;40076;52.354;4.970;2023-03-03T00:41:24;102640.84;;;3.70;100.00
54172;BME280;40076;52.354;4.970;2023-03-03T00:43:50;102645.16;;;3.71;100.00
54172;BME280;40076;52.354;4.970;2023-03-03T00:46:22;102637.94;;;3.72;100.00
54172;BME280;40076;52.354;4.970;2023-03-03T00:48:49;102644.09;;;3.72;100.00
54172;BME280;40076;52.354;4.970;2023-03-03T00:51:25;102642.69;;;3.70;100.00
54172;BME280;40076;52.354;4.970;2023-03-03T00:53:52;102644.34;;;3.71;100.00
54172;BME280;40076;52.354;4.970;2023-03-03T00:56:18;102641.66;;;3.71;100.00
54172;BME280;40076;52.354;4.970;2023-03-03T00:58:43;102650.50;;;3.71;100.00
54172;BME280;40076;52.354;4.970;2023-03-03T01:01:10;102647.00;;;3.71;100.00
54172;BME280;40076;52.354;4.970;2023-03-03T01:03:35;102655.03;;;3.71;100.00
54172;BME280;40076;52.354;4.970;2023-03-03T01:06:01;102652.56;;;3.69;100.00
54172;BME280;40076;52.354;4.970;2023-03-03T01:08:26;102652.34;;;3.71;100.00
54172;BME280;40076;52.354;4.970;2023-03-03T01:10:54;102648.03;;;3.70;100.00
54172;BME280;40076;52.354;4.970;2023-03-03T01:13:22;102652.56;;;3.69;100.00
54172;BME280;40076;52.354;4.970;2023-03-03T01:15:48;102648.25;;;3.68;100.00
54172;BME280;40076;52.354;4.970;2023-03-03T01:18:14;102645.59;;;3.68;100.00
54172;BME280;40076;52.354;4.970;2023-03-03T01:20:40;102655.47;;;3.68;100.00
54172;BME280;40076;52.354;4.970;2023-03-03T01:23:05;102653.03;;;3.66;100.00
54172;BME280;40076;52.354;4.970;2023-03-03T01:25:31;102658.63;;;3.65;100.00
54172;BME280;40076;52.354;4.970;2023-03-03T01:27:56;102651.41;;;3.65;100.00
54172;BME280;40076;52.354;4.970;2023-03-03T01:30:22;102657.56;;;3.66;100.00
54172;BME280;40076;52.354;4.970;2023-03-03T01:32:48;102657.56;;;3.66;100.00
54172;BME280;40076;52.354;4.970;2023-03-03T01:35:13;102654.53;;;3.62;100.00
54172;BME280;40076;52.354;4.970;2023-03-03T01:37:39;102655.94;;;3.65;100.00
54172;BME280;40076;52.354;4.970;2023-03-03T01:40:06;102654.09;;;3.65;100.00
54172;BME280;40076;52.354;4.970;2023-03-03T01:42:32;102657.09;;;3.69;100.00
54172;BME280;40076;52.354;4.970;2023-03-03T01:47:46;102652.94;;;3.73;100.00
54172;BME280;40076;52.354;4.970;2023-03-03T01:50:19;102657.00;;;3.75;100.00
54172;BME280;40076;52.354;4.970;2023-03-03T01:52:49;102658.28;;;3.73;100.00
54172;BME280;40076;52.354;4.970;2023-03-03T01:55:19;102654.56;;;3.74;100.00
54172;BME280;40076;52.354;4.970;2023-03-03T01:57:57;102659.34;;;3.72;100.00
54172;BME280;40076;52.354;4.970;2023-03-03T02:00:25;102658.53;;;3.71;100.00
54172;BME280;40076;52.354;4.970;2023-03-03T02:02:52;102660.16;;;3.72;100.00
54172;BME280;40076;52.354;4.970;2023-03-03T02:05:18;102664.69;;;3.72;100.00
54172;BME280;40076;52.354;4.970;2023-03-03T02:07:44;102662.00;;;3.72;100.00
54172;BME280;40076;52.354;4.970;2023-03-03T02:10:16;102659.34;;;3.72;100.00
54172;BME280;40076;52.354;4.970;2023-03-03T02:12:48;102657.69;;;3.71;100.00
54172;BME280;40076;52.354;4.970;2023-03-03T02:15:26;102665.72;;;3.71;100.00
54172;BME280;40076;52.354;4.970;2023-03-03T02:17:57;102661.03;;;3.66;100.00
54172;BME280;40076;52.354;4.970;2023-03-03T02:25:59;102656.63;;;3.60;100.00
54172;BME280;40076;52.354;4.970;2023-03-03T02:28:29;102658.25;;;3.61;100.00
54172;BME280;40076;52.354;4.970;2023-03-03T02:30:55;102656.63;;;3.60;100.00
54172;BME280;40076;52.354;4.970;2023-03-03T02:33:21;102656.38;;;3.62;100.00
54172;BME280;40076;52.354;4.970;2023-03-03T02:35:47;102657.19;;;3.62;100.00
54172;BME280;40076;52.354;4.970;2023-03-03T02:41:15;102650.44;;;3.60;100.00
54172;BME280;40076;52.354;4.970;2023-03-03T02:43:56;102655.78;;;3.60;100.00
54172;BME280;40076;52.354;4.970;2023-03-03T02:46:23;102656.63;;;3.60;100.00
54172;BME280;40076;52.354;4.970;2023-03-03T02:48:48;102655.56;;;3.61;100.00
54172;BME280;40076;52.354;4.970;2023-03-03T02:51:13;102658.84;;;3.63;100.00
54172;BME280;40076;52.354;4.970;2023-03-03T02:53:39;102656.97;;;3.64;100.00
54172;BME280;40076;52.354;4.970;2023-03-03T02:56:05;102648.75;;;3.65;100.00
54172;BME280;40076;52.354;4.970;2023-03-03T02:58:31;102653.50;;;3.63;100.00
54172;BME280;40076;52.354;4.970;2023-03-03T03:00:56;102658.63;;;3.65;100.00
54172;BME280;40076;52.354;4.970;2023-03-03T03:03:22;102655.34;;;3.63;100.00
54172;BME280;40076;52.354;4.970;2023-03-03T03:05:47;102650.81;;;3.63;100.00
54172;BME280;40076;52.354;4.970;2023-03-03T03:08:12;102658.38;;;3.66;100.00
54172;BME280;40076;52.354;4.970;2023-03-03T03:10:38;102651.97;;;3.67;100.00
54172;BME280;40076;52.354;4.970;2023-03-03T03:13:03;102657.31;;;3.67;100.00
54172;BME280;40076;52.354;4.970;2023-03-03T03:15:28;102656.28;;;3.68;100.00
54172;BME280;40076;52.354;4.970;2023-03-03T03:17:54;102650.72;;;3.70;100.00
54172;BME280;40076;52.354;4.970;2023-03-03T03:20:19;102650.13;;;3.68;100.00
54172;BME280;40076;52.354;4.970;2023-03-03T03:22:44;102656.28;;;3.68;100.00
54172;BME280;40076;52.354;4.970;2023-03-03T03:25:09;102649.31;;;3.67;100.00
54172;BME280;40076;52.354;4.970;2023-03-03T03:27:35;102658.63;;;3.65;100.00
54172;BME280;40076;52.354;4.970;2023-03-03T03:30:00;102648.97;;;3.64;100.00
54172;BME280;40076;52.354;4.970;2023-03-03T03:32:25;102647.69;;;3.66;100.00
54172;BME280;40076;52.354;4.970;2023-03-03T03:34:51;102654.91;;;3.66;100.00
54172;BME280;40076;52.354;4.970;2023-03-03T03:37:16;102653.84;;;3.67;100.00
54172;BME280;40076;52.354;4.970;2023-03-03T03:39:41;102659.44;;;3.65;100.00
54172;BME280;40076;52.354;4.970;2023-03-03T03:42:07;102666.84;;;3.63;100.00
54172;BME280;40076;52.354;4.970;2023-03-03T03:44:33;102660.47;;;3.64;100.00
54172;BME280;40076;52.354;4.970;2023-03-03T03:46:59;102662.09;;;3.65;100.00
54172;BME280;40076;52.354;4.970;2023-03-03T03:49:24;102662.09;;;3.65;100.00
54172;BME280;40076;52.354;4.970;2023-03-03T03:51:50;102657.56;;;3.66;100.00
54172;BME280;40076;52.354;4.970;2023-03-03T03:54:15;102663.97;;;3.65;100.00
54172;BME280;40076;52.354;4.970;2023-03-03T03:56:40;102666.63;;;3.65;100.00
54172;BME280;40076;52.354;4.970;2023-03-03T03:59:06;102666.63;;;3.65;100.00
54172;BME280;40076;52.354;4.970;2023-03-03T04:01:32;102670.13;;;3.65;100.00
54172;BME280;40076;52.354;4.970;2023-03-03T04:03:57;102668.28;;;3.66;100.00
54172;BME280;40076;52.354;4.970;2023-03-03T04:06:22;102672.34;;;3.68;100.00
54172;BME280;40076;52.354;4.970;2023-03-03T04:08:48;102673.38;;;3.67;100.00
54172;BME280;40076;52.354;4.970;2023-03-03T04:11:13;102678.97;;;3.66;100.00
54172;BME280;40076;52.354;4.970;2023-03-03T04:13:38;102669.06;;;3.66;100.00
54172;BME280;40076;52.354;4.970;2023-03-03T04:16:04;102663.72;;;3.66;100.00
54172;BME280;40076;52.354;4.970;2023-03-03T04:18:29;102672.81;;;3.65;100.00
54172;BME280;40076;52.354;4.970;2023-03-03T04:20:55;102670.13;;;3.65;100.00
54172;BME280;40076;52.354;4.970;2023-03-03T04:23:20;102677.06;;;3.66;100.00
54172;BME280;40076;52.354;4.970;2023-03-03T04:25:46;102668.84;;;3.68;100.00
54172;BME280;40076;52.354;4.970;2023-03-03T04:28:12;102679.75;;;3.66;100.00
54172;BME280;40076;52.354;4.970;2023-03-03T04:30:38;102665.81;;;3.64;100.00
54172;BME280;40076;52.354;4.970;2023-03-03T04:33:04;102671.38;;;3.63;100.00
54172;BME280;40076;52.354;4.970;2023-03-03T04:35:29;102676.97;;;3.61;100.00
54172;BME280;40076;52.354;4.970;2023-03-03T04:37:54;102681.47;;;3.61;100.00
54172;BME280;40076;52.354;4.970;2023-03-03T04:40:20;102678.22;;;3.59;100.00
54172;BME280;40076;52.354;4.970;2023-03-03T04:42:45;102669.41;;;3.58;100.00
54172;BME280;40076;52.354;4.970;2023-03-03T04:45:11;102679.50;;;3.56;100.00
54172;BME280;40076;52.354;4.970;2023-03-03T04:47:36;102675.78;;;3.57;100.00
54172;BME280;40076;52.354;4.970;2023-03-03T04:50:02;102680.53;;;3.55;100.00
54172;BME280;40076;52.354;4.970;2023-03-03T04:52:27;102680.53;;;3.55;100.00
54172;BME280;40076;52.354;4.970;2023-03-03T04:54:53;102681.34;;;3.56;100.00
54172;BME280;40076;52.354;4.970;2023-03-03T04:57:18;102682.78;;;3.58;100.00
54172;BME280;40076;52.354;4.970;2023-03-03T04:59:43;102685.66;;;3.57;100.00
54172;BME280;40076;52.354;4.970;2023-03-03T05:02:08;102683.81;;;3.57;100.00
54172;BME280;40076;52.354;4.970;2023-03-03T05:04:34;102682.78;;;3.58;100.00
54172;BME280;40076;52.354;4.970;2023-03-03T05:06:59;102683.34;;;3.60;100.00
54172;BME280;40076;52.354;4.970;2023-03-03T05:09:25;102679.63;;;3.61;100.00
54172;BME280;40076;52.354;4.970;2023-03-03T05:11:50;102681.25;;;3.62;100.00
54172;BME280;40076;52.354;4.970;2023-03-03T05:14:16;102674.06;;;3.63;100.00
54172;BME280;40076;52.354;4.970;2023-03-03T05:16:41;102677.56;;;3.63;100.00
54172;BME280;40076;52.354;4.970;2023-03-03T05:19:07;102677.34;;;3.65;100.00
54172;BME280;40076;52.354;4.970;2023-03-03T05:21:32;102674.41;;;3.66;100.00
54172;BME280;40076;52.354;4.970;2023-03-03T05:23:58;102678.72;;;3.67;100.00
54172;BME280;40076;52.354;4.970;2023-03-03T05:26:23;102676.63;;;3.69;100.00
54172;BME280;40076;52.354;4.970;2023-03-03T05:28:48;102674.41;;;3.66;100.00
54172;BME280;40076;52.354;4.970;2023-03-03T05:31:13;102684.06;;;3.67;100.00
54172;BME280;40076;52.354;4.970;2023-03-03T05:33:39;102676.03;;;3.67;100.00
54172;BME280;40076;52.354;4.970;2023-03-03T05:36:04;102680.56;;;3.67;100.00
54172;BME280;40076;52.354;4.970;2023-03-03T05:38:30;102675.22;;;3.67;100.00
54172;BME280;40076;52.354;4.970;2023-03-03T05:40:55;102676.28;;;3.66;100.00
54172;BME280;40076;52.354;4.970;2023-03-03T05:43:20;102675.00;;;3.68;100.00
54172;BME280;40076;52.354;4.970;2023-03-03T05:45:46;102676.03;;;3.67;100.00
54172;BME280;40076;52.354;4.970;2023-03-03T05:48:11;102678.97;;;3.66;100.00
54172;BME280;40076;52.354;4.970;2023-03-03T05:50:37;102677.91;;;3.67;100.00
54172;BME280;40076;52.354;4.970;2023-03-03T05:53:02;102685.09;;;3.66;100.00
54172;BME280;40076;52.354;4.970;2023-03-03T05:55:28;102691.50;;;3.65;100.00
54172;BME280;40076;52.354;4.970;2023-03-03T05:57:54;102686.16;;;3.65;100.00
54172;BME280;40076;52.354;4.970;2023-03-03T06:00:19;102689.66;;;3.66;100.00
54172;BME280;40076;52.354;4.970;2023-03-03T06:02:45;102694.19;;;3.65;100.00
54172;BME280;40076;52.354;4.970;2023-03-03T06:05:10;102694.53;;;3.69;100.00
54172;BME280;40076;52.354;4.970;2023-03-03T06:07:36;102694.31;;;3.70;100.00
54172;BME280;40076;52.354;4.970;2023-03-03T06:10:02;102698.84;;;3.70;100.00
54172;BME280;40076;52.354;4.970;2023-03-03T06:12:28;102701.28;;;3.71;100.00
54172;BME280;40076;52.354;4.970;2023-03-03T06:14:53;102701.28;;;3.71;100.00
54172;BME280;40076;52.354;4.970;2023-03-03T06:17:19;102693.28;;;3.71;100.00
54172;BME280;40076;52.354;4.970;2023-03-03T06:19:44;102692.69;;;3.69;100.00
54172;BME280;40076;52.354;4.970;2023-03-03T06:22:10;102695.72;;;3.73;100.00
54172;BME280;40076;52.354;4.970;2023-03-03T06:24:36;102690.13;;;3.74;100.00
54172;BME280;40076;52.354;4.970;2023-03-03T06:27:01;102685.38;;;3.76;100.00
54172;BME280;40076;52.354;4.970;2023-03-03T06:29:27;102690.72;;;3.76;100.00
54172;BME280;40076;52.354;4.970;2023-03-03T06:31:53;102695.03;;;3.77;100.00
54172;BME280;40076;52.354;4.970;2023-03-03T06:34:18;102702.22;;;3.77;100.00
54172;BME280;40076;52.354;4.970;2023-03-03T06:36:44;102700.16;;;3.79;100.00
54172;BME280;40076;52.354;4.970;2023-03-03T06:39:09;102694.81;;;3.79;100.00
54172;BME280;40076;52.354;4.970;2023-03-03T06:41:35;102689.25;;;3.80;100.00
54172;BME280;40076;52.354;4.970;2023-03-03T06:44:00;102695.63;;;3.79;100.00
54172;BME280;40076;52.354;4.970;2023-03-03T06:46:26;102701.78;;;3.80;100.00
54172;BME280;40076;52.354;4.970;2023-03-03T06:48:52;102709.56;;;3.81;100.00
54172;BME280;40076;52.354;4.970;2023-03-03T06:51:38;102703.19;;;3.82;100.00
54172;BME280;40076;52.354;4.970;2023-03-03T06:54:15;102717.38;;;3.83;100.00
54172;BME280;40076;52.354;4.970;2023-03-03T06:56:44;102709.13;;;3.84;100.00
54172;BME280;40076;52.354;4.970;2023-03-03T06:59:13;102707.47;;;3.83;100.00
54172;BME280;40076;52.354;4.970;2023-03-03T07:01:39;102709.72;;;3.86;100.00
54172;BME280;40076;52.354;4.970;2023-03-03T07:04:16;102716.69;;;3.87;100.00
54172;BME280;40076;52.354;4.970;2023-03-03T07:06:45;102723.69;;;3.88;100.00
54172;BME280;40076;52.354;4.970;2023-03-03T07:09:19;102716.47;;;3.89;100.00
54172;BME280;40076;52.354;4.970;2023-03-03T07:11:45;102724.50;;;3.89;100.00
54172;BME280;40076;52.354;4.970;2023-03-03T07:14:15;102721.00;;;3.88;100.00
54172;BME280;40076;52.354;4.970;2023-03-03T07:16:41;102727.19;;;3.89;100.00
54172;BME280;40076;52.354;4.970;2023-03-03T07:19:16;102729.84;;;3.89;100.00
54172;BME280;40076;52.354;4.970;2023-03-03T07:21:45;102737.06;;;3.88;100.00
54172;BME280;40076;52.354;4.970;2023-03-03T07:24:29;102734.13;;;3.90;100.00
54172;BME280;40076;52.354;4.970;2023-03-03T07:26:58;102741.34;;;3.89;100.00
54172;BME280;40076;52.354;4.970;2023-03-03T07:29:28;102744.25;;;3.88;100.00
54172;BME280;40076;52.354;4.970;2023-03-03T07:31:58;102744.25;;;3.88;100.00
54172;BME280;40076;52.354;4.970;2023-03-03T07:34:39;102746.94;;;3.88;100.00
54172;BME280;40076;52.354;4.970;2023-03-03T07:37:16;102746.13;;;3.87;100.00
54172;BME280;40076;52.354;4.970;2023-03-03T07:39:44;102760.31;;;3.88;100.00
54172;BME280;40076;52.354;4.970;2023-03-03T07:42:20;102759.50;;;3.87;100.00
54172;BME280;40076;52.354;4.970;2023-03-03T07:44:46;102763.53;;;3.90;100.00
54172;BME280;40076;52.354;4.970;2023-03-03T07:47:21;102765.19;;;3.91;100.00
54172;BME280;40076;52.354;4.970;2023-03-03T07:49:48;102764.97;;;3.93;100.00
54172;BME280;40076;52.354;4.970;2023-03-03T07:54:51;102771.13;;;3.93;100.00
54172;BME280;40076;52.354;4.970;2023-03-03T07:59:51;102775.66;;;3.93;100.00
54172;BME280;40076;52.354;4.970;2023-03-03T08:02:32;102780.19;;;3.92;100.00
54172;BME280;40076;52.354;4.970;2023-03-03T08:04:58;102778.34;;;3.93;100.00
54172;BME280;40076;52.354;4.970;2023-03-03T08:07:24;102788.00;;;3.94;100.00
54172;BME280;40076;52.354;4.970;2023-03-03T08:10:00;102794.38;;;3.93;100.00
54172;BME280;40076;52.354;4.970;2023-03-03T08:13:01;102795.41;;;3.92;100.00
54172;BME280;40076;52.354;4.970;2023-03-03T08:15:35;102790.53;;;3.88;100.00
54172;BME280;40076;52.354;4.970;2023-03-03T08:18:01;102790.75;;;3.87;100.00
54172;BME280;40076;52.354;4.970;2023-03-03T08:20:45;102791.81;;;3.86;100.00
54172;BME280;40076;52.354;4.970;2023-03-03T08:23:13;102795.28;;;3.86;100.00
54172;BME280;40076;52.354;4.970;2023-03-03T08:25:40;102794.69;;;3.84;100.00
54172;BME280;40076;52.354;4.970;2023-03-03T08:28:06;102792.84;;;3.85;100.00
54172;BME280;40076;52.354;4.970;2023-03-03T08:30:32;102799.81;;;3.86;100.00
54172;BME280;40076;52.354;4.970;2023-03-03T08:32:57;102797.75;;;3.88;100.00
54172;BME280;40076;52.354;4.970;2023-03-03T08:35:23;102795.88;;;3.88;100.00
54172;BME280;40076;52.354;4.970;2023-03-03T08:37:48;102802.06;;;3.89;100.00
54172;BME280;40076;52.354;4.970;2023-03-03T08:40:13;102800.63;;;3.86;100.00
54172;BME280;40076;52.354;4.970;2023-03-03T08:42:39;102796.13;;;3.87;100.00
54172;BME280;40076;52.354;4.970;2023-03-03T08:45:05;102794.81;;;3.89;100.00
54172;BME280;40076;52.354;4.970;2023-03-03T08:47:30;102799.13;;;3.91;100.00
54172;BME280;40076;52.354;4.970;2023-03-03T08:49:55;102804.47;;;3.91;100.00
54172;BME280;40076;52.354;4.970;2023-03-03T08:52:21;102798.91;;;3.92;100.00
54172;BME280;40076;52.354;4.970;2023-03-03T08:54:46;102804.03;;;3.94;100.00
54172;BME280;40076;52.354;4.970;2023-03-03T08:57:11;102800.09;;;3.96;100.00
54172;BME280;40076;52.354;4.970;2023-03-03T08:59:36;102805.47;;;3.96;100.00
54172;BME280;40076;52.354;4.970;2023-03-03T09:02:04;102807.06;;;3.97;100.00
54172;BME280;40076;52.354;4.970;2023-03-03T09:04:30;102804.38;;;3.97;100.00
54172;BME280;40076;52.354;4.970;2023-03-03T09:06:55;102812.78;;;4.01;100.00
54172;BME280;40076;52.354;4.970;2023-03-03T09:09:20;102809.91;;;4.02;100.00
54172;BME280;40076;52.354;4.970;2023-03-03T09:11:46;102805.16;;;4.04;100.00
54172;BME280;40076;52.354;4.970;2023-03-03T09:14:14;102807.56;;;4.06;100.00
54172;BME280;40076;52.354;4.970;2023-03-03T09:16:50;102805.50;;;4.08;100.00
54172;BME280;40076;52.354;4.970;2023-03-03T09:19:25;102809.81;;;4.09;100.00
54172;BME280;40076;52.354;4.970;2023-03-03T09:21:53;102810.41;;;4.11;100.00
54172;BME280;40076;52.354;4.970;2023-03-03T09:24:27;102809.09;;;4.13;100.00
54172;BME280;40076;52.354;4.970;2023-03-03T09:26:53;102812.97;;;4.17;100.00
54172;BME280;40076;52.354;4.970;2023-03-03T09:32:33;102805.06;;;4.22;100.00
54172;BME280;40076;52.354;4.970;2023-03-03T09:35:00;102805.66;;;4.24;100.00
54172;BME280;40076;52.354;4.970;2023-03-03T09:37:45;102800.91;;;4.26;100.00
54172;BME280;40076;52.354;4.970;2023-03-03T09:49:35;102800.94;;;4.38;100.00
54172;BME280;40076;52.354;4.970;2023-03-03T09:52:26;102807.69;;;4.41;100.00
54172;BME280;40076;52.354;4.970;2023-03-03T09:55:17;102807.00;;;4.45;100.00
54172;BME280;40076;52.354;4.970;2023-03-03T09:58:07;102811.91;;;4.48;100.00
54172;BME280;40076;52.354;4.970;2023-03-03T10:09:44;102805.75;;;4.59;100.00
54172;BME280;40076;52.354;4.970;2023-03-03T10:11:57;102821.34;;;4.62;100.00
54172;BME280;40076;52.354;4.970;2023-03-03T10:14:38;102820.09;;;4.65;100.00
54172;BME280;40076;52.354;4.970;2023-03-03T10:23:17;102818.00;;;4.79;100.00
54172;BME280;40076;52.354;4.970;2023-03-03T10:26:01;102819.38;;;4.81;100.00
54172;BME280;40076;52.354;4.970;2023-03-03T10:28:42;102824.50;;;4.83;100.00
54172;BME280;40076;52.354;4.970;2023-03-03T10:36:29;102807.41;;;4.95;100.00
54172;BME280;40076;52.354;4.970;2023-03-03T10:42:26;102815.09;;;5.03;100.00
54172;BME280;40076;52.354;4.970;2023-03-03T10:59:10;102802.94;;;5.48;100.00
54172;BME280;40076;52.354;4.970;2023-03-03T11:02:07;102802.81;;;5.54;100.00
54172;BME280;40076;52.354;4.970;2023-03-03T11:07:26;102806.50;;;5.65;100.00
54172;BME280;40076;52.354;4.970;2023-03-03T11:10:02;102802.88;;;5.71;100.00
54172;BME280;40076;52.354;4.970;2023-03-03T11:15:35;102809.47;;;5.80;100.00
54172;BME280;40076;52.354;4.970;2023-03-03T11:18:20;102801.53;;;5.85;100.00
54172;BME280;40076;52.354;4.970;2023-03-03T11:21:15;102805.16;;;5.91;100.00
54172;BME280;40076;52.354;4.970;2023-03-03T11:29:01;102805.84;;;5.98;100.00
54172;BME280;40076;52.354;4.970;2023-03-03T11:34:16;102798.94;;;6.02;100.00
54172;BME280;40076;52.354;4.970;2023-03-03T11:36:52;102801.13;;;6.05;100.00
54172;BME280;40076;52.354;4.970;2023-03-03T11:39:22;102793.09;;;6.05;100.00
54172;BME280;40076;52.354;4.970;2023-03-03T11:44:32;102800.97;;;6.11;100.00
54172;BME280;40076;52.354;4.970;2023-03-03T11:47:04;102794.09;;;6.15;100.00
54172;BME280;40076;52.354;4.970;2023-03-03T11:49:54;102786.47;;;6.24;100.00
54172;BME280;40076;52.354;4.970;2023-03-03T11:52:37;102788.41;;;6.29;100.00
54172;BME280;40076;52.354;4.970;2023-03-03T11:55:15;102781.00;;;6.36;100.00
54172;BME280;40076;52.354;4.970;2023-03-03T11:57:56;102784.84;;;6.40;100.00
54172;BME280;40076;52.354;4.970;2023-03-03T12:00:36;102783.06;;;6.45;100.00
54172;BME280;40076;52.354;4.970;2023-03-03T12:05:46;102779.41;;;6.51;100.00
54172;BME280;40076;52.354;4.970;2023-03-03T12:08:27;102777.06;;;6.55;100.00
54172;BME280;40076;52.354;4.970;2023-03-03T12:11:10;102776.78;;;6.56;100.00
54172;BME280;40076;52.354;4.970;2023-03-03T12:27:23;102773.22;;;6.68;100.00
54172;BME280;40076;52.354;4.970;2023-03-03T12:33:09;102759.03;;;6.72;100.00
54172;BME280;40076;52.354;4.970;2023-03-03T12:41:07;102758.56;;;6.75;100.00
54172;BME280;40076;52.354;4.970;2023-03-03T12:46:27;102758.06;;;6.78;100.00
54172;BME280;40076;52.354;4.970;2023-03-03T12:48:58;102751.63;;;6.79;100.00
54172;BME280;40076;52.354;4.970;2023-03-03T12:57:00;102748.78;;;6.86;100.00
54172;BME280;40076;52.354;4.970;2023-03-03T12:59:42;102748.78;;;6.86;100.00
54172;BME280;40076;52.354;4.970;2023-03-03T13:07:41;102743.13;;;6.87;100.00
54172;BME280;40076;52.354;4.970;2023-03-03T13:10:16;102749.09;;;6.89;100.00
54172;BME280;40076;52.354;4.970;2023-03-03T13:13:17;102747.78;;;6.92;100.00
54172;BME280;40076;52.354;4.970;2023-03-03T13:16:00;102744.84;;;6.93;100.00
54172;BME280;40076;52.354;4.970;2023-03-03T13:26:38;102746.47;;;6.94;100.00
54172;BME280;40076;52.354;4.970;2023-03-03T13:29:18;102734.91;;;6.94;100.00
54172;BME280;40076;52.354;4.970;2023-03-03T13:31:51;102730.91;;;6.96;100.00
54172;BME280;40076;52.354;4.970;2023-03-03T13:36:54;102748.72;;;7.03;100.00
54172;BME280;40076;52.354;4.970;2023-03-03T13:42:23;102743.97;;;7.10;100.00
54172;BME280;40076;52.354;4.970;2023-03-03T13:44:51;102744.31;;;7.13;100.00
54172;BME280;40076;52.354;4.970;2023-03-03T13:50:16;102730.44;;;7.21;100.00
54172;BME280;40076;52.354;4.970;2023-03-03T13:53:02;102739.06;;;7.23;100.00
54172;BME280;40076;52.354;4.970;2023-03-03T13:55:45;102731.81;;;7.24;100.00
54172;BME280;40076;52.354;4.970;2023-03-03T13:58:43;102732.13;;;7.27;100.00
54172;BME280;40076;52.354;4.970;2023-03-03T14:01:23;102736.44;;;7.28;100.00
54172;BME280;40076;52.354;4.970;2023-03-03T14:04:05;102731.06;;;7.28;100.00
54172;BME280;40076;52.354;4.970;2023-03-03T14:06:34;102725.44;;;7.30;100.00
54172;BME280;40076;52.354;4.970;2023-03-03T14:11:48;102736.00;;;7.36;100.00
54172;BME280;40076;52.354;4.970;2023-03-03T14:14:34;102724.44;;;7.36;100.00
54172;BME280;40076;52.354;4.970;2023-03-03T14:17:52;102728.22;;;7.40;100.00
54172;BME280;40076;52.354;4.970;2023-03-03T14:20:40;102726.09;;;7.42;100.00
54172;BME280;40076;52.354;4.970;2023-03-03T14:23:19;102720.72;;;7.42;100.00
54172;BME280;40076;52.354;4.970;2023-03-03T14:25:55;102719.66;;;7.43;100.00
54172;BME280;40076;52.354;4.970;2023-03-03T14:28:23;102717.78;;;7.44;100.00
54172;BME280;40076;52.354;4.970;2023-03-03T14:30:52;102722.94;;;7.45;100.00
54172;BME280;40076;52.354;4.970;2023-03-03T14:33:21;102721.88;;;7.46;100.00
54172;BME280;40076;52.354;4.970;2023-03-03T14:38:23;102713.84;;;7.51;100.00
54172;BME280;40076;52.354;4.970;2023-03-03T14:41:47;102712.78;;;7.52;100.00
54172;BME280;40076;52.354;4.970;2023-03-03T14:46:38;102707.44;;;7.57;100.00
54172;BME280;40076;52.354;4.970;2023-03-03T14:49:12;102709.31;;;7.57;100.00
54172;BME280;40076;52.354;4.970;2023-03-03T14:54:13;102707.53;;;7.62;100.00
54172;BME280;40076;52.354;4.970;2023-03-03T14:56:55;102703.25;;;7.66;100.00
54172;BME280;40076;52.354;4.970;2023-03-03T14:59:23;102695.19;;;7.66;100.00
54172;BME280;40076;52.354;4.970;2023-03-03T15:04:42;102695.50;;;7.70;100.00
54172;BME280;40076;52.354;4.970;2023-03-03T15:07:29;102690.66;;;7.72;100.00
54172;BME280;40076;52.354;4.970;2023-03-03T15:09:56;102695.22;;;7.71;100.00
54172;BME280;40076;52.354;4.970;2023-03-03T15:15:18;102682.56;;;7.72;100.00
54172;BME280;40076;52.354;4.970;2023-03-03T15:18:00;102678.25;;;7.71;100.00
54172;BME280;40076;52.354;4.970;2023-03-03T15:20:44;102675.31;;;7.72;100.00
54172;BME280;40076;52.354;4.970;2023-03-03T15:25:56;102676.38;;;7.71;100.00
54172;BME280;40076;52.354;4.970;2023-03-03T15:28:38;102675.84;;;7.69;100.00
54172;BME280;40076;52.354;4.970;2023-03-03T15:31:26;102672.88;;;7.71;100.00
54172;BME280;40076;52.354;4.970;2023-03-03T15:36:44;102668.31;;;7.71;100.00
54172;BME280;40076;52.354;4.970;2023-03-03T15:39:45;102668.06;;;7.73;100.00
54172;BME280;40076;52.354;4.970;2023-03-03T15:50:51;102658.94;;;7.74;100.00
54172;BME280;40076;52.354;4.970;2023-03-03T15:56:06;102667.81;;;7.74;100.00
54172;BME280;40076;52.354;4.970;2023-03-03T16:01:40;102655.97;;;7.75;100.00
54172;BME280;40076;52.354;4.970;2023-03-03T16:04:15;102664.88;;;7.76;100.00